createdAt,value
2019-03-18T00:00:09.714Z,5.20
2019-03-18T00:01:09.704Z,2.50
2019-03-18T00:02:09.708Z,3.80
2019-03-18T00:03:09.686Z,4.00
2019-03-18T00:04:09.670Z,4.20
2019-03-18T00:05:09.660Z,4.20
2019-03-18T00:06:09.652Z,3.00
2019-03-18T00:07:09.640Z,2.90
2019-03-18T00:08:09.642Z,4.10
2019-03-18T00:09:09.624Z,4.10
2019-03-18T00:10:09.604Z,4.00
2019-03-18T00:11:09.594Z,3.50
2019-03-18T00:12:09.584Z,3.30
2019-03-18T00:13:09.580Z,3.90
2019-03-18T00:14:09.578Z,3.60
2019-03-18T00:15:09.553Z,3.10
2019-03-18T00:16:09.545Z,4.30
2019-03-18T00:17:09.528Z,3.20
2019-03-18T00:18:09.531Z,3.40
2019-03-18T00:19:09.538Z,3.30
2019-03-18T00:20:09.540Z,3.80
2019-03-18T00:21:09.483Z,4.10
2019-03-18T00:22:09.472Z,3.30
2019-03-18T00:23:09.460Z,3.70
2019-03-18T00:24:09.455Z,4.20
2019-03-18T00:25:09.445Z,4.60
2019-03-18T00:26:09.443Z,4.10
2019-03-18T00:27:09.418Z,3.20
2019-03-18T00:28:09.412Z,2.90
2019-03-18T00:29:09.399Z,3.70
2019-03-18T00:30:09.383Z,3.70
2019-03-18T00:31:09.375Z,4.30
2019-03-18T00:32:09.386Z,3.80
2019-03-18T00:33:09.354Z,4.60
2019-03-18T00:34:09.340Z,3.30
2019-03-18T00:35:09.328Z,4.20
2019-03-18T00:36:09.320Z,2.90
2019-03-18T00:37:09.316Z,4.70
2019-03-18T00:38:09.309Z,4.00
2019-03-18T00:39:09.285Z,4.40
2019-03-18T00:40:09.276Z,3.50
2019-03-18T00:41:09.261Z,4.50
2019-03-18T00:42:09.255Z,4.40
2019-03-18T00:43:09.244Z,4.90
2019-03-18T00:44:09.243Z,6.00
2019-03-18T00:45:14.649Z,5.00
2019-03-18T00:46:10.205Z,4.40
2019-03-18T00:47:09.199Z,5.40
2019-03-18T00:48:09.193Z,5.50
2019-03-18T00:49:09.178Z,4.20
2019-03-18T00:50:09.177Z,4.10
2019-03-18T00:51:09.154Z,4.20
2019-03-18T00:52:09.141Z,5.00
2019-03-18T00:53:09.131Z,3.70
2019-03-18T00:54:09.118Z,5.30
2019-03-18T00:55:09.106Z,5.20
2019-03-18T00:56:09.117Z,5.80
2019-03-18T00:57:09.091Z,3.10
2019-03-18T00:58:09.078Z,4.10
2019-03-18T00:59:09.060Z,3.70
2019-03-18T01:00:09.052Z,6.30
2019-03-18T01:01:09.042Z,4.40
2019-03-18T01:02:09.065Z,5.10
2019-03-18T01:03:09.018Z,5.60
2019-03-18T01:04:09.009Z,6.30
2019-03-18T01:05:09.011Z,3.50
2019-03-18T01:06:08.984Z,4.10
2019-03-18T01:07:08.976Z,4.20
2019-03-18T01:08:08.988Z,5.80
2019-03-18T01:09:08.952Z,3.90
2019-03-18T01:10:08.941Z,4.90
2019-03-18T01:11:08.929Z,4.90
2019-03-18T01:12:08.920Z,4.40
2019-03-18T01:13:08.914Z,5.40
2019-03-18T01:14:08.916Z,4.50
2019-03-18T01:15:08.901Z,4.60
2019-03-18T01:16:08.874Z,3.90
2019-03-18T01:17:08.864Z,5.50
2019-03-18T01:18:08.857Z,6.20
2019-03-18T01:19:08.839Z,7.10
2019-03-18T01:20:08.866Z,5.00
2019-03-18T01:21:08.820Z,4.60
2019-03-18T01:22:08.809Z,5.40
2019-03-18T01:23:08.796Z,4.50
2019-03-18T01:24:08.796Z,5.00
2019-03-18T01:25:08.777Z,4.10
2019-03-18T01:26:08.787Z,6.50
2019-03-18T01:27:08.754Z,5.30
2019-03-18T01:28:08.743Z,3.50
2019-03-18T01:29:08.752Z,8.00
2019-03-18T01:30:08.720Z,5.00
2019-03-18T01:31:08.715Z,6.80
2019-03-18T01:32:08.717Z,4.00
2019-03-18T01:33:08.688Z,5.90
2019-03-18T01:34:08.681Z,5.40
2019-03-18T01:35:08.671Z,6.70
2019-03-18T01:36:08.653Z,5.90
2019-03-18T01:37:08.643Z,6.50
2019-03-18T01:38:08.650Z,6.00
2019-03-18T01:39:08.620Z,6.50
2019-03-18T01:40:08.614Z,5.90
2019-03-18T01:41:08.597Z,5.90
2019-03-18T01:42:08.587Z,5.30
2019-03-18T01:43:08.578Z,7.70
2019-03-18T01:44:08.582Z,7.20
2019-03-18T01:45:08.553Z,5.40
2019-03-18T01:46:08.543Z,5.40
2019-03-18T01:47:08.535Z,5.20
2019-03-18T01:48:08.523Z,7.00
2019-03-18T01:49:08.509Z,4.50
2019-03-18T01:50:08.514Z,4.40
2019-03-18T01:51:08.489Z,6.80
2019-03-18T01:52:08.482Z,4.70
2019-03-18T01:53:08.466Z,5.80
2019-03-18T01:54:08.454Z,6.20
2019-03-18T01:55:08.443Z,7.00
2019-03-18T01:56:08.453Z,5.10
2019-03-18T01:57:08.420Z,6.30
2019-03-18T01:58:08.407Z,5.20
2019-03-18T01:59:08.400Z,6.40
2019-03-18T02:00:08.390Z,5.40
2019-03-18T02:01:08.380Z,7.60
2019-03-18T02:02:08.385Z,6.40
2019-03-18T02:03:08.359Z,6.80
2019-03-18T02:04:08.346Z,7.00
2019-03-18T02:05:08.332Z,7.10
2019-03-18T02:06:08.323Z,6.40
2019-03-18T02:07:08.318Z,7.40
2019-03-18T02:08:08.323Z,5.10
2019-03-18T02:09:08.286Z,7.60
2019-03-18T02:10:08.282Z,7.90
2019-03-18T02:11:08.274Z,5.10
2019-03-18T02:12:08.255Z,4.90
2019-03-18T02:13:08.246Z,6.50
2019-03-18T02:14:08.261Z,7.90
2019-03-18T02:15:08.223Z,8.20
2019-03-18T02:16:08.211Z,7.00
2019-03-18T02:17:08.254Z,5.70
2019-03-18T02:18:08.187Z,6.60
2019-03-18T02:19:08.179Z,6.90
2019-03-18T02:20:08.186Z,5.60
2019-03-18T02:21:08.155Z,8.10
2019-03-18T02:22:08.145Z,5.70
2019-03-18T02:23:08.138Z,7.10
2019-03-18T02:24:08.125Z,5.40
2019-03-18T02:25:08.111Z,8.00
2019-03-18T02:26:08.117Z,8.00
2019-03-18T02:27:08.095Z,5.90
2019-03-18T02:28:08.091Z,6.50
2019-03-18T02:29:08.068Z,7.50
2019-03-18T02:30:08.056Z,7.80
2019-03-18T02:31:08.054Z,9.00
2019-03-18T02:32:08.060Z,6.40
2019-03-18T02:33:08.021Z,5.90
2019-03-18T02:34:08.013Z,8.30
2019-03-18T02:35:08.001Z,7.60
2019-03-18T02:36:07.989Z,7.10
2019-03-18T02:37:07.985Z,5.50
2019-03-18T02:38:07.997Z,6.50
2019-03-18T02:39:07.955Z,9.10
2019-03-18T02:40:07.949Z,5.20
2019-03-18T02:41:07.934Z,6.70
2019-03-18T02:42:07.922Z,7.30
2019-03-18T02:43:07.911Z,6.40
2019-03-18T02:44:07.919Z,6.00
2019-03-18T02:45:07.887Z,4.80
2019-03-18T02:46:10.394Z,6.40
2019-03-18T02:47:07.869Z,7.90
2019-03-18T02:48:07.855Z,7.20
2019-03-18T02:49:07.845Z,6.60
2019-03-18T02:50:07.852Z,7.60
2019-03-18T02:51:07.832Z,7.30
2019-03-18T02:52:07.818Z,10.90
2019-03-18T02:53:07.800Z,7.20
2019-03-18T02:54:07.791Z,7.80
2019-03-18T02:55:07.787Z,8.30
2019-03-18T02:56:07.793Z,7.70
2019-03-18T02:57:07.755Z,9.50
2019-03-18T02:58:07.744Z,6.40
2019-03-18T02:59:07.735Z,7.30
2019-03-18T03:00:07.730Z,8.30
2019-03-18T03:01:07.715Z,6.10
2019-03-18T03:02:07.717Z,7.50
2019-03-18T03:03:07.689Z,6.70
2019-03-18T03:04:07.688Z,8.50
2019-03-18T03:05:07.677Z,6.30
2019-03-18T03:06:07.654Z,9.50
2019-03-18T03:07:07.649Z,6.70
2019-03-18T03:08:07.655Z,7.00
2019-03-18T03:09:07.627Z,7.90
2019-03-18T03:10:07.627Z,8.70
2019-03-18T03:11:07.603Z,7.50
2019-03-18T03:12:07.597Z,8.20
2019-03-18T03:13:07.586Z,6.00
2019-03-18T03:14:07.583Z,6.10
2019-03-18T03:15:07.558Z,6.70
2019-03-18T03:16:07.546Z,6.90
2019-03-18T03:17:07.534Z,6.10
2019-03-18T03:18:07.524Z,5.50
2019-03-18T03:19:07.518Z,7.00
2019-03-18T03:20:07.519Z,7.10
2019-03-18T03:21:07.493Z,6.90
2019-03-18T03:22:07.479Z,8.70
2019-03-18T03:23:07.478Z,7.00
2019-03-18T03:24:07.463Z,6.10
2019-03-18T03:25:07.447Z,5.60
2019-03-18T03:26:07.460Z,6.10
2019-03-18T03:27:07.425Z,9.20
2019-03-18T03:28:07.416Z,6.60
2019-03-18T03:29:07.403Z,7.60
2019-03-18T03:30:07.391Z,6.10
2019-03-18T03:31:07.383Z,5.60
2019-03-18T03:32:07.398Z,5.70
2019-03-18T03:33:07.356Z,9.30
2019-03-18T03:34:12.872Z,5.40
2019-03-18T03:35:08.360Z,7.10
2019-03-18T03:36:07.329Z,8.90
2019-03-18T03:37:07.312Z,7.10
2019-03-18T03:38:07.322Z,8.80
2019-03-18T03:39:07.296Z,7.60
2019-03-18T03:40:07.343Z,7.80
2019-03-18T03:41:07.271Z,8.50
2019-03-18T03:42:07.264Z,7.10
2019-03-18T03:43:07.245Z,6.70
2019-03-18T03:44:07.251Z,5.50
2019-03-18T03:45:07.231Z,6.60
2019-03-18T03:46:07.213Z,6.00
2019-03-18T03:47:07.202Z,7.10
2019-03-18T03:48:07.191Z,7.90
2019-03-18T03:49:07.180Z,8.20
2019-03-18T03:50:07.193Z,6.60
2019-03-18T03:51:07.160Z,5.10
2019-03-18T03:52:07.143Z,7.20
2019-03-18T03:53:07.142Z,6.20
2019-03-18T03:54:07.193Z,7.30
2019-03-18T03:55:07.112Z,7.30
2019-03-18T03:56:07.133Z,8.80
2019-03-18T03:57:07.095Z,6.40
2019-03-18T03:58:07.087Z,4.80
2019-03-18T03:59:07.067Z,8.00
2019-03-18T04:00:07.059Z,7.10
2019-03-18T04:01:07.058Z,5.30
2019-03-18T04:02:07.063Z,6.70
2019-03-18T04:03:07.024Z,5.90
2019-03-18T04:04:07.012Z,8.10
2019-03-18T04:05:07.008Z,8.50
2019-03-18T04:06:06.990Z,6.20
2019-03-18T04:07:07.007Z,6.90
2019-03-18T04:08:06.988Z,8.00
2019-03-18T04:09:06.968Z,9.50
2019-03-18T04:10:06.946Z,7.00
2019-03-18T04:11:08.668Z,8.50
2019-03-18T04:12:06.924Z,7.40
2019-03-18T04:13:06.913Z,9.20
2019-03-18T04:14:06.925Z,9.00
2019-03-18T04:15:06.892Z,7.50
2019-03-18T04:16:06.883Z,6.70
2019-03-18T04:17:06.921Z,8.70
2019-03-18T04:18:06.858Z,7.50
2019-03-18T04:19:06.845Z,6.40
2019-03-18T04:20:06.860Z,7.90
2019-03-18T04:21:06.822Z,6.30
2019-03-18T04:22:06.818Z,6.40
2019-03-18T04:23:06.809Z,5.20
2019-03-18T04:24:06.939Z,6.60
2019-03-18T04:25:06.780Z,8.10
2019-03-18T04:26:06.785Z,6.90
2019-03-18T04:27:06.769Z,6.90
2019-03-18T04:28:06.751Z,3.90
2019-03-18T04:29:06.736Z,5.90
2019-03-18T04:30:06.731Z,8.20
2019-03-18T04:31:06.721Z,4.10
2019-03-18T04:32:06.726Z,7.20
2019-03-18T04:33:06.697Z,5.50
2019-03-18T04:34:06.697Z,6.40
2019-03-18T04:35:06.673Z,4.60
2019-03-18T04:36:06.657Z,6.20
2019-03-18T04:37:06.648Z,5.50
2019-03-18T04:38:06.662Z,5.00
2019-03-18T04:39:06.626Z,5.40
2019-03-18T04:40:06.615Z,6.40
2019-03-18T04:41:06.603Z,5.40
2019-03-18T04:42:06.592Z,5.70
2019-03-18T04:43:06.583Z,5.20
2019-03-18T04:44:06.588Z,4.80
2019-03-18T04:45:06.557Z,4.50
2019-03-18T04:46:06.553Z,6.80
2019-03-18T04:47:14.196Z,4.20
2019-03-18T04:48:07.524Z,5.50
2019-03-18T04:49:06.519Z,7.70
2019-03-18T04:50:06.527Z,5.60
2019-03-18T04:51:06.491Z,5.60
2019-03-18T04:52:06.482Z,8.20
2019-03-18T04:53:06.470Z,6.50
2019-03-18T04:54:06.464Z,8.30
2019-03-18T04:55:06.447Z,6.30
2019-03-18T04:56:06.455Z,6.40
2019-03-18T04:57:06.429Z,7.20
2019-03-18T04:58:06.416Z,7.50
2019-03-18T04:59:06.406Z,7.10
2019-03-18T05:00:06.395Z,4.90
2019-03-18T05:01:06.388Z,8.10
2019-03-18T05:02:06.393Z,6.80
2019-03-18T05:03:06.367Z,7.20
2019-03-18T05:04:06.356Z,7.70
2019-03-18T05:05:06.342Z,6.70
2019-03-18T05:06:06.343Z,8.00
2019-03-18T05:07:06.319Z,8.30
2019-03-18T05:08:06.327Z,7.80
2019-03-18T05:09:06.297Z,7.90
2019-03-18T05:10:06.285Z,5.20
2019-03-18T05:11:06.273Z,6.60
2019-03-18T05:12:06.279Z,6.60
2019-03-18T05:13:06.255Z,7.00
2019-03-18T05:14:06.257Z,5.80
2019-03-18T05:15:06.227Z,6.80
2019-03-18T05:16:06.218Z,5.80
2019-03-18T05:17:06.207Z,6.50
2019-03-18T05:18:06.195Z,6.30
2019-03-18T05:19:06.190Z,6.80
2019-03-18T05:20:06.189Z,10.00
2019-03-18T05:21:06.160Z,6.00
2019-03-18T05:22:06.152Z,6.20
2019-03-18T05:23:06.138Z,6.00
2019-03-18T05:24:06.129Z,6.60
2019-03-18T05:25:06.124Z,8.30
2019-03-18T05:26:06.135Z,7.60
2019-03-18T05:27:06.102Z,7.50
2019-03-18T05:28:06.083Z,10.00
2019-03-18T05:29:06.072Z,8.70
2019-03-18T05:30:06.066Z,8.60
2019-03-18T05:31:06.049Z,11.70
2019-03-18T05:32:06.056Z,8.10
2019-03-18T05:33:06.028Z,9.70
2019-03-18T05:34:06.024Z,11.60
2019-03-18T05:35:06.009Z,10.70
2019-03-18T05:36:05.997Z,9.60
2019-03-18T05:37:05.985Z,12.20
2019-03-18T05:38:05.992Z,14.50
2019-03-18T05:39:05.967Z,10.60
2019-03-18T05:40:05.957Z,12.30
2019-03-18T05:41:05.953Z,11.70
2019-03-18T05:42:05.932Z,13.10
2019-03-18T05:43:05.923Z,13.20
2019-03-18T05:44:08.096Z,12.90
2019-03-18T05:45:05.900Z,12.80
2019-03-18T05:46:05.889Z,17.20
2019-03-18T05:47:05.871Z,13.80
2019-03-18T05:48:05.865Z,16.60
2019-03-18T05:49:05.855Z,14.70
2019-03-18T05:50:05.861Z,15.60
2019-03-18T05:51:05.827Z,15.40
2019-03-18T05:52:05.816Z,12.00
2019-03-18T05:53:05.814Z,15.20
2019-03-18T05:54:05.806Z,13.40
2019-03-18T05:55:05.789Z,13.70
2019-03-18T05:56:05.791Z,13.10
2019-03-18T05:57:05.766Z,16.40
2019-03-18T05:58:05.755Z,14.00
2019-03-18T05:59:05.752Z,17.40
2019-03-18T06:00:05.730Z,14.00
2019-03-18T06:01:05.730Z,14.00
2019-03-18T06:02:05.722Z,16.30
2019-03-18T06:03:05.695Z,17.00
2019-03-18T06:04:05.685Z,16.30
2019-03-18T06:05:05.678Z,16.00
2019-03-18T06:06:05.662Z,14.50
2019-03-18T06:07:05.653Z,16.70
2019-03-18T06:08:05.657Z,15.80
2019-03-18T06:09:05.633Z,14.20
2019-03-18T06:10:05.618Z,15.90
2019-03-18T06:11:05.614Z,17.00
2019-03-18T06:12:05.601Z,16.00
2019-03-18T06:13:05.586Z,12.30
2019-03-18T06:14:05.592Z,18.60
2019-03-18T06:15:05.568Z,14.70
2019-03-18T06:16:05.573Z,14.90
2019-03-18T06:17:05.541Z,18.00
2019-03-18T06:18:05.534Z,17.20
2019-03-18T06:19:05.522Z,18.60
2019-03-18T06:20:05.533Z,16.30
2019-03-18T06:21:05.497Z,20.10
2019-03-18T06:22:05.486Z,17.10
2019-03-18T06:23:05.473Z,19.10
2019-03-18T06:24:06.552Z,16.00
2019-03-18T06:25:05.453Z,17.00
2019-03-18T06:26:05.476Z,18.20
2019-03-18T06:27:05.431Z,16.80
2019-03-18T06:28:05.426Z,18.70
2019-03-18T06:29:05.418Z,20.60
2019-03-18T06:30:05.399Z,21.20
2019-03-18T06:31:05.390Z,20.30
2019-03-18T06:32:05.391Z,20.70
2019-03-18T06:33:05.391Z,18.00
2019-03-18T06:34:05.353Z,17.10
2019-03-18T06:35:05.343Z,17.50
2019-03-18T06:36:05.337Z,24.90
2019-03-18T06:37:05.321Z,20.00
2019-03-18T06:38:05.331Z,18.20
2019-03-18T06:39:05.305Z,21.50
2019-03-18T06:40:05.291Z,17.90
2019-03-18T06:41:05.277Z,20.60
2019-03-18T06:42:05.269Z,19.40
2019-03-18T06:43:05.259Z,24.40
2019-03-18T06:44:05.257Z,24.10
2019-03-18T06:45:05.237Z,23.60
2019-03-18T06:46:05.254Z,23.00
2019-03-18T06:47:05.224Z,24.00
2019-03-18T06:48:05.603Z,22.00
2019-03-18T06:49:05.186Z,23.00
2019-03-18T06:50:05.201Z,21.20
2019-03-18T06:51:05.169Z,23.00
2019-03-18T06:52:05.176Z,21.90
2019-03-18T06:53:05.144Z,22.70
2019-03-18T06:54:05.132Z,24.10
2019-03-18T06:55:05.205Z,24.90
2019-03-18T06:56:05.135Z,21.70
2019-03-18T06:57:05.112Z,22.90
2019-03-18T06:58:05.087Z,25.10
2019-03-18T06:59:05.087Z,20.60
2019-03-18T07:00:06.969Z,19.50
2019-03-18T07:01:05.061Z,25.10
2019-03-18T07:02:05.069Z,26.30
2019-03-18T07:03:05.037Z,24.10
2019-03-18T07:04:05.025Z,22.80
2019-03-18T07:05:05.019Z,23.80
2019-03-18T07:06:05.004Z,22.30
2019-03-18T07:07:04.992Z,24.90
2019-03-18T07:08:04.996Z,22.80
2019-03-18T07:09:04.966Z,24.50
2019-03-18T07:10:04.958Z,23.30
2019-03-18T07:11:04.946Z,22.50
2019-03-18T07:12:04.934Z,21.40
2019-03-18T07:13:04.924Z,22.10
2019-03-18T07:14:04.931Z,25.60
2019-03-18T07:15:04.905Z,25.30
2019-03-18T07:16:04.895Z,26.90
2019-03-18T07:17:04.881Z,24.80
2019-03-18T07:18:17.189Z,21.20
2019-03-18T07:19:05.873Z,26.70
2019-03-18T07:20:04.849Z,23.60
2019-03-18T07:21:04.840Z,23.00
2019-03-18T07:22:04.835Z,25.70
2019-03-18T07:23:04.819Z,23.10
2019-03-18T07:24:04.808Z,23.60
2019-03-18T07:25:04.812Z,21.90
2019-03-18T07:26:04.800Z,21.60
2019-03-18T07:27:04.778Z,19.80
2019-03-18T07:28:04.768Z,17.70
2019-03-18T07:29:04.757Z,18.50
2019-03-18T07:30:04.746Z,22.40
2019-03-18T07:31:04.764Z,20.90
2019-03-18T07:32:04.748Z,21.40
2019-03-18T07:33:04.755Z,18.10
2019-03-18T07:34:04.705Z,16.70
2019-03-18T07:35:04.691Z,15.30
2019-03-18T07:36:04.706Z,14.70
2019-03-18T07:37:04.687Z,12.90
2019-03-18T07:38:04.663Z,15.50
2019-03-18T07:39:04.649Z,17.10
2019-03-18T07:40:04.640Z,17.20
2019-03-18T07:41:04.629Z,15.70
2019-03-18T07:42:04.621Z,18.40
2019-03-18T07:43:04.628Z,20.80
2019-03-18T07:44:04.605Z,22.40
2019-03-18T07:45:04.603Z,23.70
2019-03-18T07:46:04.611Z,21.90
2019-03-18T07:47:04.605Z,20.80
2019-03-18T07:48:06.501Z,21.50
2019-03-18T07:49:04.564Z,24.40
2019-03-18T07:50:04.528Z,20.80
2019-03-18T07:51:04.527Z,22.40
2019-03-18T07:52:04.503Z,21.00
2019-03-18T07:53:04.497Z,22.30
2019-03-18T07:54:04.482Z,21.40
2019-03-18T07:55:04.498Z,23.60
2019-03-18T07:56:04.462Z,22.10
2019-03-18T07:57:04.453Z,25.00
2019-03-18T07:58:04.438Z,23.20
2019-03-18T07:59:04.432Z,20.20
2019-03-18T08:00:04.422Z,24.10
2019-03-18T08:01:04.432Z,23.30
2019-03-18T08:02:04.396Z,20.20
2019-03-18T08:03:04.472Z,19.40
2019-03-18T08:04:04.375Z,18.00
2019-03-18T08:05:04.369Z,22.00
2019-03-18T08:06:04.351Z,22.70
2019-03-18T08:07:04.376Z,23.30
2019-03-18T08:08:04.328Z,25.00
2019-03-18T08:09:04.317Z,21.60
2019-03-18T08:10:04.307Z,23.50
2019-03-18T08:11:04.294Z,25.70
2019-03-18T08:12:04.287Z,20.30
2019-03-18T08:13:04.286Z,21.10
2019-03-18T08:14:04.259Z,22.90
2019-03-18T08:15:04.267Z,21.10
2019-03-18T08:16:04.240Z,22.60
2019-03-18T08:17:04.231Z,23.20
2019-03-18T08:18:04.213Z,21.90
2019-03-18T08:19:04.231Z,18.80
2019-03-18T08:20:04.201Z,21.60
2019-03-18T08:21:04.187Z,19.50
2019-03-18T08:22:04.174Z,18.50
2019-03-18T08:23:04.164Z,23.90
2019-03-18T08:24:04.151Z,19.70
2019-03-18T08:25:04.155Z,19.00
2019-03-18T08:26:04.157Z,22.90
2019-03-18T08:27:04.114Z,23.40
2019-03-18T08:28:04.102Z,22.30
2019-03-18T08:29:04.091Z,20.40
2019-03-18T08:30:04.079Z,21.70
2019-03-18T08:31:04.144Z,24.70
2019-03-18T08:32:04.055Z,25.30
2019-03-18T08:33:04.045Z,23.30
2019-03-18T08:34:04.034Z,25.80
2019-03-18T08:35:04.026Z,22.10
2019-03-18T08:36:04.011Z,24.70
2019-03-18T08:37:04.025Z,21.20
2019-03-18T08:38:03.993Z,19.60
2019-03-18T08:39:03.979Z,19.90
2019-03-18T08:40:03.967Z,18.30
2019-03-18T08:41:03.959Z,18.00
2019-03-18T08:42:03.943Z,19.40
2019-03-18T08:43:03.962Z,17.30
2019-03-18T08:44:03.922Z,16.50
2019-03-18T08:45:03.909Z,17.20
2019-03-18T08:46:03.901Z,20.20
2019-03-18T08:47:03.887Z,16.90
2019-03-18T08:48:03.878Z,23.90
2019-03-18T08:49:03.887Z,18.20
2019-03-18T08:50:03.851Z,18.50
2019-03-18T08:51:03.845Z,17.20
2019-03-18T08:52:03.826Z,15.90
2019-03-18T08:53:03.828Z,17.60
2019-03-18T08:54:03.806Z,14.60
2019-03-18T08:55:03.811Z,16.20
2019-03-18T08:56:03.780Z,17.50
2019-03-18T08:57:03.769Z,19.10
2019-03-18T08:58:03.759Z,16.20
2019-03-18T08:59:03.744Z,16.60
2019-03-18T09:00:03.734Z,16.10
2019-03-18T09:01:03.747Z,16.20
2019-03-18T09:02:03.709Z,15.30
2019-03-18T09:03:03.696Z,16.20
2019-03-18T09:04:03.690Z,14.90
2019-03-18T09:05:03.673Z,15.70
2019-03-18T09:06:03.665Z,16.70
2019-03-18T09:07:03.667Z,19.80
2019-03-18T09:08:03.635Z,14.10
2019-03-18T09:09:03.627Z,16.50
2019-03-18T09:10:03.615Z,15.20
2019-03-18T09:11:03.606Z,14.40
2019-03-18T09:12:03.593Z,16.40
2019-03-18T09:13:03.671Z,15.60
2019-03-18T09:14:03.584Z,15.20
2019-03-18T09:15:03.559Z,15.80
2019-03-18T09:16:03.543Z,14.50
2019-03-18T09:17:03.533Z,14.60
2019-03-18T09:18:03.531Z,14.80
2019-03-18T09:19:08.627Z,17.20
2019-03-18T09:20:04.502Z,17.30
2019-03-18T09:21:03.485Z,17.70
2019-03-18T09:22:03.477Z,14.00
2019-03-18T09:23:03.467Z,13.10
2019-03-18T09:24:03.462Z,14.90
2019-03-18T09:25:03.473Z,15.30
2019-03-18T09:26:03.437Z,14.40
2019-03-18T09:27:03.421Z,13.60
2019-03-18T09:28:03.408Z,12.40
2019-03-18T09:29:03.404Z,9.70
2019-03-18T09:30:03.384Z,10.20
2019-03-18T09:31:03.501Z,12.40
2019-03-18T09:32:03.366Z,10.80
2019-03-18T09:33:03.381Z,14.00
2019-03-18T09:34:03.341Z,11.80
2019-03-18T09:35:03.342Z,12.10
2019-03-18T09:36:03.317Z,12.80
2019-03-18T09:37:03.329Z,10.80
2019-03-18T09:38:03.302Z,9.30
2019-03-18T09:39:03.285Z,11.30
2019-03-18T09:40:03.273Z,14.30
2019-03-18T09:41:03.259Z,12.60
2019-03-18T09:42:03.317Z,9.70
2019-03-18T09:43:03.262Z,10.50
2019-03-18T09:44:03.261Z,10.60
2019-03-18T09:45:03.217Z,15.00
2019-03-18T09:46:03.228Z,11.30
2019-03-18T09:47:03.193Z,15.50
2019-03-18T09:48:03.184Z,11.30
2019-03-18T09:49:03.203Z,11.00
2019-03-18T09:50:03.158Z,14.30
2019-03-18T09:51:03.154Z,12.30
2019-03-18T09:52:03.141Z,14.00
2019-03-18T09:53:03.139Z,13.50
2019-03-18T09:54:03.142Z,14.80
2019-03-18T09:55:03.119Z,12.60
2019-03-18T09:56:03.116Z,9.80
2019-03-18T09:57:03.081Z,10.30
2019-03-18T09:58:03.070Z,11.50
2019-03-18T09:59:03.057Z,11.40
2019-03-18T10:00:03.047Z,10.90
2019-03-18T10:01:03.052Z,13.50
2019-03-18T10:02:03.022Z,12.20
2019-03-18T10:03:03.020Z,11.20
2019-03-18T10:04:03.030Z,11.50
2019-03-18T10:05:02.989Z,13.90
2019-03-18T10:06:02.983Z,13.20
2019-03-18T10:07:03.029Z,11.00
2019-03-18T10:08:02.957Z,10.20
2019-03-18T10:09:02.961Z,8.80
2019-03-18T10:10:02.943Z,11.30
2019-03-18T10:11:02.920Z,9.40
2019-03-18T10:12:02.918Z,10.50
2019-03-18T10:13:02.920Z,10.20
2019-03-18T10:14:02.886Z,9.80
2019-03-18T10:15:02.880Z,11.40
2019-03-18T10:16:02.885Z,9.90
2019-03-18T10:17:09.526Z,11.10
2019-03-18T10:18:03.859Z,12.80
2019-03-18T10:19:02.835Z,13.60
2019-03-18T10:20:02.824Z,11.00
2019-03-18T10:21:02.812Z,10.00
2019-03-18T10:22:02.804Z,8.30
2019-03-18T10:23:03.195Z,11.30
2019-03-18T10:24:02.797Z,12.90
2019-03-18T10:25:04.306Z,10.10
2019-03-18T10:26:02.756Z,10.20
2019-03-18T10:27:02.743Z,9.10
2019-03-18T10:28:02.735Z,8.80
2019-03-18T10:29:02.722Z,10.20
2019-03-18T10:30:02.732Z,10.70
2019-03-18T10:31:02.697Z,11.60
2019-03-18T10:32:02.688Z,12.50
2019-03-18T10:33:02.685Z,9.60
2019-03-18T10:34:02.665Z,8.10
2019-03-18T10:35:02.655Z,8.80
2019-03-18T10:36:02.658Z,9.30
2019-03-18T10:37:02.638Z,9.20
2019-03-18T10:38:02.622Z,7.90
2019-03-18T10:39:02.619Z,13.40
2019-03-18T10:40:02.602Z,9.10
2019-03-18T10:41:02.586Z,11.40
2019-03-18T10:42:02.595Z,8.70
2019-03-18T10:43:02.570Z,11.70
2019-03-18T10:44:02.552Z,10.50
2019-03-18T10:45:02.543Z,10.10
2019-03-18T10:46:02.528Z,12.90
2019-03-18T10:47:02.517Z,11.60
2019-03-18T10:48:02.557Z,8.30
2019-03-18T10:49:02.502Z,12.10
2019-03-18T10:50:02.489Z,10.10
2019-03-18T10:51:02.480Z,11.60
2019-03-18T10:52:02.514Z,10.30
2019-03-18T10:53:02.488Z,9.90
2019-03-18T10:54:02.482Z,9.80
2019-03-18T10:55:02.436Z,12.30
2019-03-18T10:56:07.759Z,11.50
2019-03-18T10:57:03.413Z,10.50
2019-03-18T10:58:02.391Z,11.20
2019-03-18T10:59:02.385Z,11.20
2019-03-18T11:00:02.392Z,9.10
2019-03-18T11:01:02.360Z,10.50
2019-03-18T11:02:02.345Z,10.00
2019-03-18T11:03:02.333Z,8.90
2019-03-18T11:04:02.321Z,9.20
2019-03-18T11:05:02.316Z,8.30
2019-03-18T11:06:02.321Z,7.60
2019-03-18T11:07:02.321Z,10.20
2019-03-18T11:08:02.507Z,9.60
2019-03-18T11:09:02.264Z,7.30
2019-03-18T11:10:02.259Z,5.50
2019-03-18T11:11:02.242Z,8.90
2019-03-18T11:12:02.264Z,8.30
2019-03-18T11:13:02.224Z,7.40
2019-03-18T11:14:02.260Z,6.30
2019-03-18T11:15:02.200Z,8.10
2019-03-18T11:16:02.202Z,5.40
2019-03-18T11:17:02.187Z,6.00
2019-03-18T11:18:02.186Z,8.30
2019-03-18T11:19:02.155Z,8.40
2019-03-18T11:20:02.139Z,7.80
2019-03-18T11:21:02.130Z,8.30
2019-03-18T11:22:02.139Z,7.00
2019-03-18T11:23:02.108Z,7.70
2019-03-18T11:24:02.113Z,7.30
2019-03-18T11:25:02.079Z,7.50
2019-03-18T11:26:02.072Z,9.50
2019-03-18T11:27:02.070Z,8.30
2019-03-18T11:28:02.051Z,8.40
2019-03-18T11:29:02.034Z,7.20
2019-03-18T11:30:02.041Z,7.80
2019-03-18T11:31:02.018Z,6.50
2019-03-18T11:32:02.000Z,7.60
2019-03-18T11:33:01.987Z,7.70
2019-03-18T11:34:01.976Z,10.10
2019-03-18T11:35:01.965Z,10.60
2019-03-18T11:36:01.977Z,6.80
2019-03-18T11:37:01.940Z,9.40
2019-03-18T11:38:01.936Z,8.50
2019-03-18T11:39:01.921Z,9.40
2019-03-18T11:40:01.942Z,10.70
2019-03-18T11:41:01.897Z,8.20
2019-03-18T11:42:01.902Z,10.50
2019-03-18T11:43:01.871Z,8.10
2019-03-18T11:44:01.857Z,8.50
2019-03-18T11:45:01.908Z,5.90
2019-03-18T11:46:01.853Z,8.40
2019-03-18T11:47:01.828Z,8.40
2019-03-18T11:48:01.835Z,10.00
2019-03-18T11:49:01.799Z,8.10
2019-03-18T11:50:11.028Z,7.80
2019-03-18T11:51:02.773Z,9.00
2019-03-18T11:52:01.767Z,9.60
2019-03-18T11:53:13.427Z,8.90
2019-03-18T11:54:02.777Z,8.30
2019-03-18T11:55:01.728Z,7.00
2019-03-18T11:56:01.720Z,7.70
2019-03-18T11:57:01.713Z,7.70
2019-03-18T11:58:01.694Z,7.70
2019-03-18T11:59:01.680Z,9.00
2019-03-18T12:00:01.689Z,6.20
2019-03-18T12:01:01.657Z,6.00
2019-03-18T12:02:01.659Z,7.80
2019-03-18T12:03:01.633Z,9.10
2019-03-18T12:04:01.627Z,7.80
2019-03-18T12:05:01.621Z,6.70
2019-03-18T12:06:01.624Z,7.40
2019-03-18T12:07:01.620Z,10.30
2019-03-18T12:08:01.580Z,5.40
2019-03-18T12:09:01.563Z,7.80
2019-03-18T12:10:01.555Z,7.90
2019-03-18T12:11:01.549Z,7.70
2019-03-18T12:12:01.563Z,8.80
2019-03-18T12:13:01.521Z,6.90
2019-03-18T12:14:01.504Z,7.00
2019-03-18T12:15:01.724Z,7.60
2019-03-18T12:16:01.483Z,7.10
2019-03-18T12:17:01.471Z,7.30
2019-03-18T12:18:01.476Z,7.30
2019-03-18T12:19:01.448Z,6.10
2019-03-18T12:20:01.445Z,8.80
2019-03-18T12:21:01.444Z,7.50
2019-03-18T12:22:01.410Z,7.30
2019-03-18T12:23:01.424Z,7.80
2019-03-18T12:24:01.427Z,7.30
2019-03-18T12:25:01.388Z,6.30
2019-03-18T12:26:01.411Z,7.60
2019-03-18T12:27:01.402Z,5.70
2019-03-18T12:28:01.349Z,9.00
2019-03-18T12:29:01.339Z,8.70
2019-03-18T12:30:01.336Z,5.40
2019-03-18T12:31:01.309Z,5.80
2019-03-18T12:32:01.297Z,7.70
2019-03-18T12:33:01.274Z,6.40
2019-03-18T12:34:01.274Z,8.40
2019-03-18T12:35:01.832Z,6.40
2019-03-18T12:36:01.254Z,6.70
2019-03-18T12:37:01.228Z,6.90
2019-03-18T12:38:01.214Z,5.60
2019-03-18T12:39:01.240Z,7.50
2019-03-18T12:40:01.209Z,6.80
2019-03-18T12:41:01.182Z,7.30
2019-03-18T12:42:01.201Z,5.00
2019-03-18T12:43:01.154Z,4.50
2019-03-18T12:44:01.146Z,7.00
2019-03-18T12:45:01.135Z,5.20
2019-03-18T12:46:01.122Z,6.00
2019-03-18T12:47:01.112Z,6.00
2019-03-18T12:48:01.115Z,5.40
2019-03-18T12:49:01.110Z,4.60
2019-03-18T12:50:01.072Z,4.20
2019-03-18T12:51:01.061Z,5.10
2019-03-18T12:52:01.057Z,6.60
2019-03-18T12:53:01.081Z,7.40
2019-03-18T12:54:01.046Z,6.70
2019-03-18T12:55:01.018Z,6.40
2019-03-18T12:56:00.995Z,7.10
2019-03-18T12:57:00.989Z,5.00
2019-03-18T12:58:00.971Z,4.60
2019-03-18T12:59:00.963Z,8.00
2019-03-18T13:00:00.985Z,5.40
2019-03-18T13:01:12.143Z,5.90
2019-03-18T13:02:01.923Z,5.30
2019-03-18T13:03:00.912Z,6.50
2019-03-18T13:04:00.899Z,7.30
2019-03-18T13:05:02.855Z,7.40
2019-03-18T13:06:00.914Z,7.20
2019-03-18T13:07:00.865Z,8.80